Time;durP1;ratioP1;P1;durP2;ratioP2;P2;SDS_P1;SDS_P2;PMS_P1;PMS_P2;Temp;Humidity;BMP_temperature;BMP_pressure;BME280_temperature;BME280_humidity;BME280_pressure;Samples;Min_cycle;Max_cycle;Signal;HPM_P1;HPM_P2
2021/01/24 00:00:28;;;;;;;36.93;19.98;;;;;;;;;;1704651;84;21124;-85
2021/01/24 00:02:56;;;;;;;34.43;19.40;;;;;;;;;;1704281;84;21143;-84
2021/01/24 00:05:23;;;;;;;34.60;19.52;;;;;;;;;;1678035;84;21618;-85
2021/01/24 00:07:49;;;;;;;36.85;18.32;;;;;;;;;;1704468;84;21173;-85
2021/01/24 00:10:17;;;;;;;38.65;19.98;;;;;;;;;;1704221;84;21598;-85
2021/01/24 00:12:43;;;;;;;37.13;19.85;;;;;;;;;;1678463;84;21159;-85
2021/01/24 00:15:10;;;;;;;32.63;20.25;;;;;;;;;;1704275;84;21610;-84
2021/01/24 00:17:36;;;;;;;38.65;20.77;;;;;;;;;;1704261;84;21206;-86
2021/01/24 00:20:03;;;;;;;41.30;21.10;;;;;;;;;;1704187;84;21575;-85
2021/01/24 00:22:29;;;;;;;40.65;21.90;;;;;;;;;;1704268;84;21578;-83
2021/01/24 00:24:55;;;;;;;41.28;21.33;;;;;;;;;;1704251;84;21171;-85
2021/01/24 00:27:22;;;;;;;38.85;19.37;;;;;;;;;;1704308;84;21231;-85
2021/01/24 00:29:48;;;;;;;41.25;22.48;;;;;;;;;;1704284;84;21151;-85
2021/01/24 00:32:14;;;;;;;38.50;18.82;;;;;;;;;;1704148;84;21147;-84
2021/01/24 00:34:41;;;;;;;42.05;19.98;;;;;;;;;;1704243;84;21176;-85
2021/01/24 00:37:15;;;;;;;47.67;21.97;;;;;;;;;;1678567;84;21594;-85
2021/01/24 00:39:39;;;;;;;40.85;21.52;;;;;;;;;;1703393;84;21661;-85
2021/01/24 00:42:05;;;;;;;42.35;20.35;;;;;;;;;;1704435;84;21171;-85
2021/01/24 00:44:32;;;;;;;34.58;20.17;;;;;;;;;;1704413;84;21179;-85
2021/01/24 00:46:58;;;;;;;39.33;18.85;;;;;;;;;;1704134;84;21210;-85
2021/01/24 00:49:24;;;;;;;37.03;19.17;;;;;;;;;;1704108;84;21167;-84
2021/01/24 00:51:51;;;;;;;42.70;20.72;;;;;;;;;;1704342;84;21180;-86
2021/01/24 00:54:17;;;;;;;36.25;19.40;;;;;;;;;;1704370;84;21195;-84
2021/01/24 00:56:43;;;;;;;35.15;18.20;;;;;;;;;;1701663;83;21151;-85
2021/01/24 00:59:09;;;;;;;31.42;16.77;;;;;;;;;;1701171;84;21180;-85
2021/01/24 01:01:42;;;;;;;34.03;17.30;;;;;;;;;;1701207;84;21618;-86
2021/01/24 01:04:08;;;;;;;38.45;20.05;;;;;;;;;;1701299;84;21198;-85
2021/01/24 01:06:34;;;;;;;36.60;19.48;;;;;;;;;;1701096;84;21168;-84
2021/01/24 01:09:00;;;;;;;36.55;18.10;;;;;;;;;;1701202;84;21194;-85
2021/01/24 01:11:26;;;;;;;34.38;18.15;;;;;;;;;;1701159;84;21183;-85
2021/01/24 01:13:52;;;;;;;38.85;19.02;;;;;;;;;;1701190;84;21591;-85
2021/01/24 01:16:19;;;;;;;35.25;18.95;;;;;;;;;;1701375;84;21195;-85
2021/01/24 01:18:45;;;;;;;32.58;16.77;;;;;;;;;;1701164;84;21143;-85
2021/01/24 01:21:11;;;;;;;37.48;17.98;;;;;;;;;;1701294;84;21136;-85
2021/01/24 01:23:37;;;;;;;34.35;19.75;;;;;;;;;;1701135;84;21195;-85
2021/01/24 01:26:03;;;;;;;33.85;18.55;;;;;;;;;;1701220;84;21166;-84
2021/01/24 01:28:30;;;;;;;33.20;17.85;;;;;;;;;;1701302;84;21170;-85
2021/01/24 01:30:56;;;;;;;32.75;19.40;;;;;;;;;;1701157;84;21192;-84
2021/01/24 01:33:22;;;;;;;34.35;17.85;;;;;;;;;;1701213;84;21194;-85
2021/01/24 01:35:48;;;;;;;36.75;20.40;;;;;;;;;;1701152;84;21191;-84
2021/01/24 01:38:14;;;;;;;33.05;17.82;;;;;;;;;;1701288;84;21175;-84
2021/01/24 01:40:41;;;;;;;27.70;14.70;;;;;;;;;;1701497;84;21199;-84
2021/01/24 01:43:07;;;;;;;35.55;17.87;;;;;;;;;;1701165;84;21634;-85
2021/01/24 01:45:33;;;;;;;31.48;17.60;;;;;;;;;;1701281;84;21166;-85
2021/01/24 01:47:59;;;;;;;29.50;15.98;;;;;;;;;;1701441;84;21177;-85
2021/01/24 01:50:26;;;;;;;32.03;17.25;;;;;;;;;;1701009;84;21595;-85
2021/01/24 01:52:52;;;;;;;30.27;16.45;;;;;;;;;;1701348;84;21635;-86
2021/01/24 01:55:18;;;;;;;28.70;17.95;;;;;;;;;;1701014;83;21717;-85
2021/01/24 01:57:44;;;;;;;31.82;16.87;;;;;;;;;;1701468;84;21158;-85
2021/01/24 02:00:11;;;;;;;27.07;15.75;;;;;;;;;;1701171;84;21136;-85
2021/01/24 02:02:51;;;;;;;31.25;18.07;;;;;;;;;;1701137;84;21203;-84
2021/01/24 02:05:22;;;;;;;36.25;18.95;;;;;;;;;;1654128;84;21198;-85
2021/01/24 02:07:50;;;;;;;31.75;17.82;;;;;;;;;;1701005;84;21618;-85
2021/01/24 02:10:18;;;;;;;33.73;17.50;;;;;;;;;;1700676;84;21610;-86
2021/01/24 02:12:48;;;;;;;36.23;18.35;;;;;;;;;;1700686;84;21580;-85
2021/01/24 02:15:16;;;;;;;32.73;17.07;;;;;;;;;;1701068;84;21179;-84
2021/01/24 02:17:43;;;;;;;31.68;16.20;;;;;;;;;;1701092;84;21210;-85
2021/01/24 02:20:14;;;;;;;29.77;16.57;;;;;;;;;;1701312;84;21210;-85
2021/01/24 02:22:40;;;;;;;28.75;17.17;;;;;;;;;;1700419;84;21183;-85
2021/01/24 02:25:11;;;;;;;35.25;17.60;;;;;;;;;;1701193;84;21206;-86
2021/01/24 02:27:42;;;;;;;31.80;17.60;;;;;;;;;;1701241;84;21244;-85
2021/01/24 02:30:23;;;;;;;30.50;16.67;;;;;;;;;;1701183;84;21183;-85
2021/01/24 02:32:54;;;;;;;28.90;16.45;;;;;;;;;;1701136;84;21597;-85
2021/01/24 02:35:22;;;;;;;36.00;17.82;;;;;;;;;;1701168;84;21183;-85
2021/01/24 02:37:48;;;;;;;31.80;17.37;;;;;;;;;;1701069;84;21207;-84
2021/01/24 02:40:14;;;;;;;30.10;16.82;;;;;;;;;;1701036;84;21143;-85
2021/01/24 02:42:42;;;;;;;32.03;17.17;;;;;;;;;;1700965;84;21626;-84
2021/01/24 02:45:08;;;;;;;30.55;18.07;;;;;;;;;;1701102;84;21166;-85
2021/01/24 02:47:34;;;;;;;31.30;16.95;;;;;;;;;;1701081;84;21188;-84
2021/01/24 02:50:01;;;;;;;29.63;17.37;;;;;;;;;;1701379;84;21151;-85
2021/01/24 02:52:28;;;;;;;33.08;17.32;;;;;;;;;;1700974;84;21170;-84
2021/01/24 02:54:54;;;;;;;34.55;18.30;;;;;;;;;;1701150;84;21334;-83
2021/01/24 02:57:20;;;;;;;32.58;18.02;;;;;;;;;;1703647;83;21186;-85
2021/01/24 02:59:46;;;;;;;34.78;18.57;;;;;;;;;;1704212;84;21166;-84
2021/01/24 03:02:13;;;;;;;34.53;17.57;;;;;;;;;;1704250;84;21171;-85
2021/01/24 03:04:39;;;;;;;35.00;17.98;;;;;;;;;;1703996;84;21174;-84
2021/01/24 03:07:05;;;;;;;33.88;18.20;;;;;;;;;;1704415;84;21229;-85
2021/01/24 03:09:31;;;;;;;34.83;18.30;;;;;;;;;;1704342;84;21167;-86
2021/01/24 03:11:58;;;;;;;30.85;17.77;;;;;;;;;;1704291;84;21622;-85
2021/01/24 03:14:26;;;;;;;32.63;17.87;;;;;;;;;;1704354;84;21203;-85
2021/01/24 03:16:56;;;;;;;33.00;18.92;;;;;;;;;;1704209;84;21143;-84
2021/01/24 03:19:24;;;;;;;34.65;19.23;;;;;;;;;;1704215;84;21163;-85
2021/01/24 03:21:50;;;;;;;30.12;17.45;;;;;;;;;;1704595;84;21151;-84
2021/01/24 03:24:20;;;;;;;33.65;19.25;;;;;;;;;;1704422;84;21631;-85
2021/01/24 03:26:46;;;;;;;32.63;18.98;;;;;;;;;;1704238;84;21179;-85
2021/01/24 03:29:14;;;;;;;37.30;20.50;;;;;;;;;;1704349;84;21618;-84
2021/01/24 03:31:40;;;;;;;33.90;18.00;;;;;;;;;;1704533;84;21591;-87
2021/01/24 03:34:08;;;;;;;32.48;18.35;;;;;;;;;;1704556;84;21218;-84
2021/01/24 03:36:34;;;;;;;35.58;18.57;;;;;;;;;;1704337;84;21626;-85
2021/01/24 03:39:00;;;;;;;36.83;18.62;;;;;;;;;;1704525;84;21170;-84
2021/01/24 03:41:28;;;;;;;37.88;19.02;;;;;;;;;;1704347;84;21158;-85
2021/01/24 03:43:54;;;;;;;37.40;19.82;;;;;;;;;;1703478;84;21131;-85
2021/01/24 03:46:20;;;;;;;35.38;19.12;;;;;;;;;;1704456;84;21175;-86
2021/01/24 03:48:47;;;;;;;42.95;21.82;;;;;;;;;;1704306;84;21397;-84
2021/01/24 03:51:13;;;;;;;41.40;22.25;;;;;;;;;;1704341;84;21171;-86
2021/01/24 03:53:40;;;;;;;43.65;22.42;;;;;;;;;;1704571;84;21167;-85
2021/01/24 03:56:07;;;;;;;37.83;21.57;;;;;;;;;;1703498;83;21151;-85
2021/01/24 03:58:33;;;;;;;36.30;20.77;;;;;;;;;;1701186;84;21183;-85
2021/01/24 04:01:00;;;;;;;47.43;25.20;;;;;;;;;;1696982;84;21195;-84
2021/01/24 04:03:26;;;;;;;42.43;23.85;;;;;;;;;;1676156;84;21210;-86
2021/01/24 04:05:55;;;;;;;46.15;24.27;;;;;;;;;;1673067;86;21626;-85
2021/01/24 04:08:21;;;;;;;43.25;24.63;;;;;;;;;;1673057;86;21182;-85
2021/01/24 04:10:47;;;;;;;43.98;24.60;;;;;;;;;;1673347;86;21259;-84
2021/01/24 04:13:14;;;;;;;46.18;25.17;;;;;;;;;;1672934;86;21171;-85
2021/01/24 04:15:40;;;;;;;45.55;24.50;;;;;;;;;;1672465;86;21182;-85
2021/01/24 04:18:06;;;;;;;48.17;26.30;;;;;;;;;;1673134;86;21213;-85
2021/01/24 04:20:33;;;;;;;43.68;24.80;;;;;;;;;;1673019;86;21206;-85
2021/01/24 04:23:00;;;;;;;47.43;23.62;;;;;;;;;;1673142;86;21210;-85
2021/01/24 04:25:26;;;;;;;42.60;22.98;;;;;;;;;;1673231;86;21601;-86
2021/01/24 04:27:52;;;;;;;42.13;22.60;;;;;;;;;;1673106;86;21147;-85
2021/01/24 04:30:18;;;;;;;39.85;21.73;;;;;;;;;;1673246;86;21179;-85
2021/01/24 04:32:44;;;;;;;40.95;22.42;;;;;;;;;;1673152;86;21199;-86
2021/01/24 04:35:11;;;;;;;42.03;23.25;;;;;;;;;;1673067;86;21593;-84
2021/01/24 04:37:37;;;;;;;40.33;20.57;;;;;;;;;;1673063;86;21233;-85
2021/01/24 04:40:04;;;;;;;31.62;18.17;;;;;;;;;;1673066;86;21210;-85
2021/01/24 04:42:30;;;;;;;28.65;17.27;;;;;;;;;;1673042;86;21694;-85
2021/01/24 04:44:56;;;;;;;31.62;17.00;;;;;;;;;;1673150;86;21183;-85
2021/01/24 04:47:22;;;;;;;41.00;18.55;;;;;;;;;;1672964;86;21182;-85
2021/01/24 04:49:50;;;;;;;33.18;17.77;;;;;;;;;;1660772;85;21612;-84
2021/01/24 04:52:17;;;;;;;27.32;15.98;;;;;;;;;;1678286;85;21663;-85
2021/01/24 04:54:43;;;;;;;27.90;15.30;;;;;;;;;;1678415;85;21169;-85
2021/01/24 04:57:09;;;;;;;29.48;16.65;;;;;;;;;;1660689;85;21145;-86
2021/01/24 04:59:36;;;;;;;28.27;15.40;;;;;;;;;;1678387;85;21627;-84
2021/01/24 05:02:02;;;;;;;27.02;16.60;;;;;;;;;;1678371;85;21224;-85
2021/01/24 05:04:28;;;;;;;30.57;16.85;;;;;;;;;;1678296;85;21271;-86
2021/01/24 05:06:54;;;;;;;30.57;16.48;;;;;;;;;;1678463;85;21209;-85
2021/01/24 05:09:21;;;;;;;29.15;15.93;;;;;;;;;;1678699;85;21180;-85
2021/01/24 05:11:53;;;;;;;27.52;16.35;;;;;;;;;;1678367;85;21169;-85
2021/01/24 05:14:20;;;;;;;29.95;16.32;;;;;;;;;;1678638;85;21184;-85
2021/01/24 05:16:49;;;;;;;31.33;17.02;;;;;;;;;;1678311;84;21180;-85
2021/01/24 05:19:16;;;;;;;32.00;17.02;;;;;;;;;;1678374;85;21172;-86
2021/01/24 05:21:42;;;;;;;29.77;17.60;;;;;;;;;;1678420;84;21240;-85
2021/01/24 05:24:09;;;;;;;33.23;18.00;;;;;;;;;;1678292;85;21672;-85
2021/01/24 05:26:36;;;;;;;33.88;17.87;;;;;;;;;;1678376;84;21628;-85
2021/01/24 05:29:02;;;;;;;30.30;18.05;;;;;;;;;;1678614;85;21216;-85
2021/01/24 05:31:28;;;;;;;33.95;18.82;;;;;;;;;;1678319;85;21311;-85
2021/01/24 05:33:56;;;;;;;30.68;17.15;;;;;;;;;;1678408;85;21205;-86
2021/01/24 05:36:22;;;;;;;33.30;17.98;;;;;;;;;;1678366;85;21573;-85
2021/01/24 05:38:48;;;;;;;29.10;17.12;;;;;;;;;;1678422;85;21228;-84
2021/01/24 05:41:14;;;;;;;32.83;18.32;;;;;;;;;;1678347;84;21205;-85
2021/01/24 05:43:41;;;;;;;34.45;17.65;;;;;;;;;;1678620;84;21591;-84
2021/01/24 05:46:08;;;;;;;30.92;18.55;;;;;;;;;;1678343;85;21635;-85
2021/01/24 05:48:35;;;;;;;35.23;19.00;;;;;;;;;;1678710;85;21191;-85
2021/01/24 05:51:03;;;;;;;29.32;16.93;;;;;;;;;;1674343;85;21163;-86
2021/01/24 05:53:30;;;;;;;33.60;17.77;;;;;;;;;;1673750;84;21164;-84
2021/01/24 05:55:56;;;;;;;31.45;17.77;;;;;;;;;;1660920;85;21640;-86
2021/01/24 05:58:23;;;;;;;39.63;17.70;;;;;;;;;;1699728;84;21165;-85
2021/01/24 06:00:50;;;;;;;31.97;16.87;;;;;;;;;;1686947;85;21636;-87
2021/01/24 06:03:16;;;;;;;30.85;16.90;;;;;;;;;;1687136;84;21185;-86
2021/01/24 06:05:43;;;;;;;32.95;19.07;;;;;;;;;;1687108;85;21617;-85
2021/01/24 06:08:09;;;;;;;29.18;17.50;;;;;;;;;;1686997;84;21180;-84
2021/01/24 06:10:35;;;;;;;32.45;18.40;;;;;;;;;;1686858;84;21181;-86
2021/01/24 06:13:03;;;;;;;32.60;18.45;;;;;;;;;;1686915;85;21184;-85
2021/01/24 06:15:29;;;;;;;35.17;18.23;;;;;;;;;;1687134;84;21185;-86
2021/01/24 06:17:59;;;;;;;31.48;17.92;;;;;;;;;;1687079;84;21613;-85
2021/01/24 06:20:33;;;;;;;31.20;17.07;;;;;;;;;;1686888;85;21713;-85
2021/01/24 06:23:16;;;;;;;33.53;18.00;;;;;;;;;;1701097;84;21185;-86
2021/01/24 06:25:46;;;;;;;35.23;18.37;;;;;;;;;;1645583;86;21282;-85
2021/01/24 06:28:17;;;;;;;34.92;19.32;;;;;;;;;;1683993;84;21181;-85
2021/01/24 06:30:44;;;;;;;36.88;20.02;;;;;;;;;;1701091;84;21188;-86
2021/01/24 06:33:15;;;;;;;33.73;19.30;;;;;;;;;;1700791;84;21181;-85
2021/01/24 06:35:47;;;;;;;38.60;19.57;;;;;;;;;;1700450;84;21176;-85
2021/01/24 06:38:30;;;;;;;36.53;20.35;;;;;;;;;;1700806;84;21234;-85
2021/01/24 06:40:56;;;;;;;40.15;21.12;;;;;;;;;;1700833;84;21228;-86
2021/01/24 06:43:33;;;;;;;34.05;20.08;;;;;;;;;;1700904;84;21201;-86
2021/01/24 06:45:59;;;;;;;43.63;24.10;;;;;;;;;;1700175;84;21707;-85
2021/01/24 06:48:47;;;;;;;35.15;21.10;;;;;;;;;;1701044;84;21164;-86
2021/01/24 06:51:32;;;;;;;40.55;22.65;;;;;;;;;;1700699;84;21613;-85
2021/01/24 06:54:00;;;;;;;44.93;30.95;;;;;;;;;;1686186;84;28484;-86
2021/01/24 06:56:28;;;;;;;40.95;24.75;;;;;;;;;;1700362;84;21209;-86
2021/01/24 06:58:54;;;;;;;42.08;23.77;;;;;;;;;;1677616;85;21161;-86
2021/01/24 07:01:24;;;;;;;37.30;21.77;;;;;;;;;;1678461;85;21612;-85
2021/01/24 07:04:09;;;;;;;37.42;22.07;;;;;;;;;;1674420;86;21174;-84
2021/01/24 07:06:37;;;;;;;36.68;21.05;;;;;;;;;;1674303;84;21619;-84
2021/01/24 07:09:05;;;;;;;37.63;20.60;;;;;;;;;;1674144;86;21178;-84
2021/01/24 07:11:47;;;;;;;35.28;20.30;;;;;;;;;;1675815;85;21266;-85
2021/01/24 07:14:32;;;;;;;34.83;19.95;;;;;;;;;;1678446;84;21232;-84
2021/01/24 07:17:11;;;;;;;32.78;20.35;;;;;;;;;;1678590;85;21204;-84
2021/01/24 07:19:46;;;;;;;40.83;23.00;;;;;;;;;;1678580;85;21256;-85
2021/01/24 07:22:12;;;;;;;40.45;23.60;;;;;;;;;;1678360;85;21196;-85
2021/01/24 07:24:39;;;;;;;44.27;23.95;;;;;;;;;;1678260;85;21173;-87
2021/01/24 07:27:07;;;;;;;41.95;24.92;;;;;;;;;;1678232;85;21179;-85
2021/01/24 07:29:34;;;;;;;48.13;26.48;;;;;;;;;;1678071;85;21585;-85
2021/01/24 07:32:02;;;;;;;51.63;27.90;;;;;;;;;;1678355;84;21244;-85
2021/01/24 07:34:28;;;;;;;50.05;27.50;;;;;;;;;;1676085;85;21220;-85
2021/01/24 07:36:54;;;;;;;49.03;28.00;;;;;;;;;;1678275;84;21168;-85
2021/01/24 07:39:20;;;;;;;48.70;28.23;;;;;;;;;;1678316;85;21715;-85
2021/01/24 07:41:47;;;;;;;50.60;26.95;;;;;;;;;;1678638;85;21195;-85
2021/01/24 07:44:13;;;;;;;47.65;27.37;;;;;;;;;;1678350;84;21705;-85
2021/01/24 07:46:40;;;;;;;41.63;22.30;;;;;;;;;;1678459;84;21164;-85
2021/01/24 07:49:06;;;;;;;45.25;25.05;;;;;;;;;;1678292;85;21212;-84
2021/01/24 07:51:32;;;;;;;44.35;26.05;;;;;;;;;;1678499;85;21173;-85
2021/01/24 07:53:59;;;;;;;51.70;28.40;;;;;;;;;;1678394;84;21201;-86
2021/01/24 07:56:25;;;;;;;47.90;27.98;;;;;;;;;;1678472;85;21168;-85
2021/01/24 07:58:51;;;;;;;51.85;27.62;;;;;;;;;;1678431;84;21608;-85
2021/01/24 08:01:18;;;;;;;48.08;28.40;;;;;;;;;;1661241;85;21179;-85
2021/01/24 08:03:45;;;;;;;50.45;27.48;;;;;;;;;;1678432;85;21648;-86
2021/01/24 08:06:12;;;;;;;54.20;29.27;;;;;;;;;;1678737;85;21184;-85
2021/01/24 08:08:38;;;;;;;53.73;29.35;;;;;;;;;;1678350;85;21335;-85
2021/01/24 08:11:05;;;;;;;45.38;25.52;;;;;;;;;;1678367;84;21222;-84
2021/01/24 08:13:31;;;;;;;43.38;26.12;;;;;;;;;;1678632;85;21195;-85
2021/01/24 08:15:58;;;;;;;53.33;28.65;;;;;;;;;;1678622;85;21180;-87
2021/01/24 08:18:25;;;;;;;52.35;30.48;;;;;;;;;;1678458;85;21157;-85
2021/01/24 08:20:51;;;;;;;49.80;28.80;;;;;;;;;;1678543;84;21188;-85
2021/01/24 08:23:17;;;;;;;54.90;29.32;;;;;;;;;;1678675;85;21187;-85
2021/01/24 08:25:43;;;;;;;47.17;27.65;;;;;;;;;;1678447;85;21648;-86
2021/01/24 08:28:09;;;;;;;51.00;28.45;;;;;;;;;;1660707;85;21177;-86
2021/01/24 08:30:39;;;;;;;50.65;31.17;;;;;;;;;;1660891;85;21242;-86
2021/01/24 08:33:08;;;;;;;47.55;28.40;;;;;;;;;;1678413;85;21153;-84
2021/01/24 08:35:35;;;;;;;51.68;28.90;;;;;;;;;;1678378;84;21184;-85
2021/01/24 08:38:01;;;;;;;52.50;30.25;;;;;;;;;;1678479;85;21596;-84
2021/01/24 08:40:31;;;;;;;50.78;29.15;;;;;;;;;;1678288;85;21176;-85
2021/01/24 08:42:57;;;;;;;49.85;29.48;;;;;;;;;;1678318;85;21197;-85
2021/01/24 08:45:28;;;;;;;50.20;28.38;;;;;;;;;;1678491;85;21164;-85
2021/01/24 08:47:56;;;;;;;47.13;30.30;;;;;;;;;;1678448;85;21188;-84
2021/01/24 08:50:22;;;;;;;49.55;28.90;;;;;;;;;;1678503;85;21169;-84
2021/01/24 08:52:55;;;;;;;50.17;29.40;;;;;;;;;;1678337;84;21255;-85
2021/01/24 08:55:21;;;;;;;50.30;28.57;;;;;;;;;;1677846;85;21184;-84
2021/01/24 08:57:47;;;;;;;48.92;29.12;;;;;;;;;;1686184;84;21153;-85
2021/01/24 09:00:14;;;;;;;51.92;29.87;;;;;;;;;;1700784;84;21310;-85
2021/01/24 09:02:40;;;;;;;50.60;28.45;;;;;;;;;;1700858;84;21208;-85
2021/01/24 09:05:08;;;;;;;49.83;27.65;;;;;;;;;;1700943;84;21176;-86
2021/01/24 09:07:47;;;;;;;51.60;27.48;;;;;;;;;;1700866;84;21770;-86
2021/01/24 09:10:21;;;;;;;48.17;27.73;;;;;;;;;;1700987;84;21596;-84
2021/01/24 09:12:51;;;;;;;46.42;26.23;;;;;;;;;;1701397;84;21188;-86
2021/01/24 09:15:17;;;;;;;42.25;26.52;;;;;;;;;;1700894;84;21354;-85
2021/01/24 09:17:44;;;;;;;48.08;28.60;;;;;;;;;;1701044;84;21326;-85
2021/01/24 09:20:13;;;;;;;52.58;29.18;;;;;;;;;;1700932;84;21612;-86
2021/01/24 09:22:39;;;;;;;48.08;30.80;;;;;;;;;;1700847;84;21723;-85
2021/01/24 09:25:07;;;;;;;53.83;32.23;;;;;;;;;;1701163;84;21192;-85
2021/01/24 09:27:34;;;;;;;56.53;31.40;;;;;;;;;;1700963;84;21334;-85
2021/01/24 09:30:00;;;;;;;47.48;28.85;;;;;;;;;;1701139;84;21179;-86
2021/01/24 09:32:26;;;;;;;47.17;28.47;;;;;;;;;;1701057;84;21216;-85
2021/01/24 09:34:53;;;;;;;49.05;28.42;;;;;;;;;;1700839;84;21200;-85
2021/01/24 09:37:21;;;;;;;43.48;26.75;;;;;;;;;;1700797;84;21264;-85
2021/01/24 09:39:48;;;;;;;42.20;25.62;;;;;;;;;;1700674;84;21714;-85
2021/01/24 09:42:14;;;;;;;37.73;25.00;;;;;;;;;;1700737;84;21188;-85
2021/01/24 09:44:41;;;;;;;38.42;23.92;;;;;;;;;;1700852;84;21184;-86
2021/01/24 09:47:09;;;;;;;36.77;23.22;;;;;;;;;;1701052;84;21191;-85
2021/01/24 09:49:35;;;;;;;37.80;23.87;;;;;;;;;;1701062;84;21726;-86
2021/01/24 09:52:01;;;;;;;38.05;24.75;;;;;;;;;;1701000;84;21196;-85
2021/01/24 09:54:28;;;;;;;35.25;23.45;;;;;;;;;;1700946;84;21208;-86
2021/01/24 09:56:54;;;;;;;38.33;23.60;;;;;;;;;;1700977;84;21741;-86
2021/01/24 09:59:21;;;;;;;34.00;21.73;;;;;;;;;;1681371;84;21188;-86
2021/01/24 10:01:50;;;;;;;34.80;21.37;;;;;;;;;;1678333;85;21224;-85
2021/01/24 10:04:16;;;;;;;33.58;21.50;;;;;;;;;;1678490;85;21239;-85
2021/01/24 10:06:42;;;;;;;32.48;20.25;;;;;;;;;;1678431;85;21176;-85
2021/01/24 10:09:09;;;;;;;33.28;20.60;;;;;;;;;;1678448;84;21684;-84
2021/01/24 10:11:35;;;;;;;26.93;17.20;;;;;;;;;;1678267;84;21176;-84
2021/01/24 10:14:01;;;;;;;21.57;15.90;;;;;;;;;;1678429;85;21604;-84
2021/01/24 10:16:29;;;;;;;24.98;17.23;;;;;;;;;;1678474;85;21165;-83
2021/01/24 10:18:56;;;;;;;26.07;18.45;;;;;;;;;;1678392;84;21189;-84
2021/01/24 10:21:23;;;;;;;22.60;16.75;;;;;;;;;;1678370;85;21189;-84
2021/01/24 10:23:49;;;;;;;24.27;17.67;;;;;;;;;;1678281;85;21208;-85
2021/01/24 10:26:15;;;;;;;26.60;17.90;;;;;;;;;;1678049;85;21181;-84
2021/01/24 10:28:41;;;;;;;24.80;17.02;;;;;;;;;;1678433;85;21255;-85
2021/01/24 10:31:07;;;;;;;21.60;16.00;;;;;;;;;;1678231;85;21172;-85
2021/01/24 10:33:34;;;;;;;24.05;17.52;;;;;;;;;;1678461;85;21625;-84
2021/01/24 10:36:00;;;;;;;26.17;17.82;;;;;;;;;;1678414;85;21204;-84
2021/01/24 10:38:27;;;;;;;24.43;16.93;;;;;;;;;;1678360;85;21149;-85
2021/01/24 10:40:53;;;;;;;26.40;17.15;;;;;;;;;;1678527;85;21184;-85
2021/01/24 10:43:19;;;;;;;22.62;16.32;;;;;;;;;;1678384;85;21616;-85
2021/01/24 10:45:45;;;;;;;23.70;16.40;;;;;;;;;;1678317;84;21643;-85
2021/01/24 10:48:11;;;;;;;22.17;15.55;;;;;;;;;;1678139;85;21173;-85
2021/01/24 10:50:41;;;;;;;23.62;17.10;;;;;;;;;;1678425;85;21169;-84
2021/01/24 10:53:10;;;;;;;23.80;16.10;;;;;;;;;;1678486;85;21180;-84
2021/01/24 10:55:36;;;;;;;23.50;16.82;;;;;;;;;;1678475;85;21604;-84
2021/01/24 10:58:02;;;;;;;22.85;15.40;;;;;;;;;;1683080;84;21195;-86
2021/01/24 11:00:29;;;;;;;20.45;15.10;;;;;;;;;;1700798;84;21342;-85
2021/01/24 11:02:57;;;;;;;22.20;15.48;;;;;;;;;;1701076;84;21181;-84
2021/01/24 11:05:23;;;;;;;21.90;15.72;;;;;;;;;;1699951;84;21153;-85
2021/01/24 11:07:49;;;;;;;22.32;15.40;;;;;;;;;;1701011;84;21168;-84
2021/01/24 11:10:16;;;;;;;15.70;11.73;;;;;;;;;;1700726;84;21188;-85
2021/01/24 11:12:42;;;;;;;11.55;7.65;;;;;;;;;;1700595;84;21177;-85
2021/01/24 11:15:09;;;;;;;9.15;7.00;;;;;;;;;;1700769;84;21330;-85
2021/01/24 11:17:41;;;;;;;9.20;5.40;;;;;;;;;;1700761;84;21180;-84
2021/01/24 11:20:10;;;;;;;1.80;1.17;;;;;;;;;;1700985;84;21176;-85
2021/01/24 11:22:37;;;;;;;2.77;1.82;;;;;;;;;;1700721;84;21611;-85
2021/01/24 11:25:07;;;;;;;3.55;2.02;;;;;;;;;;1701013;84;21177;-86
2021/01/24 11:27:33;;;;;;;2.15;1.40;;;;;;;;;;1701184;84;21177;-86
2021/01/24 11:29:59;;;;;;;2.90;1.75;;;;;;;;;;1701280;84;21197;-85
2021/01/24 11:32:25;;;;;;;1.90;1.30;;;;;;;;;;1700865;84;21374;-85
2021/01/24 11:34:52;;;;;;;2.72;1.50;;;;;;;;;;1701230;84;21157;-84
2021/01/24 11:37:18;;;;;;;1.35;1.20;;;;;;;;;;1700930;84;21165;-86
2021/01/24 11:39:44;;;;;;;2.55;1.17;;;;;;;;;;1700912;84;21180;-86
2021/01/24 11:42:10;;;;;;;3.50;1.80;;;;;;;;;;1701043;84;21149;-86
2021/01/24 11:44:36;;;;;;;1.80;1.17;;;;;;;;;;1701178;84;21193;-86
2021/01/24 11:47:02;;;;;;;2.25;1.35;;;;;;;;;;1701342;84;21595;-85
2021/01/24 11:49:29;;;;;;;4.00;1.65;;;;;;;;;;1701036;84;21635;-85
2021/01/24 11:51:55;;;;;;;1.35;0.95;;;;;;;;;;1701081;84;21157;-86
2021/01/24 11:54:21;;;;;;;2.42;1.50;;;;;;;;;;1700925;84;21603;-85
2021/01/24 11:56:47;;;;;;;2.52;1.62;;;;;;;;;;1701096;84;21659;-85
2021/01/24 11:59:14;;;;;;;2.47;1.70;;;;;;;;;;1688003;84;21192;-85
2021/01/24 12:01:40;;;;;;;3.75;1.70;;;;;;;;;;1678613;85;21229;-84
2021/01/24 12:04:11;;;;;;;3.80;1.87;;;;;;;;;;1678629;85;21205;-84
2021/01/24 12:06:34;;;;;;;1.72;0.90;;;;;;;;;;1677661;85;21208;-86
2021/01/24 12:09:00;;;;;;;1.95;1.35;;;;;;;;;;1678446;85;21177;-86
2021/01/24 12:11:27;;;;;;;2.77;1.35;;;;;;;;;;1678498;85;21213;-85
2021/01/24 12:13:53;;;;;;;1.85;1.22;;;;;;;;;;1678431;85;21604;-85
2021/01/24 12:16:21;;;;;;;2.15;1.47;;;;;;;;;;1678587;85;21235;-86
2021/01/24 12:18:50;;;;;;;2.08;1.00;;;;;;;;;;1678448;84;21157;-84
2021/01/24 12:21:18;;;;;;;2.08;1.05;;;;;;;;;;1678394;85;21176;-86
2021/01/24 12:23:44;;;;;;;3.55;1.15;;;;;;;;;;1678482;84;21200;-85
2021/01/24 12:26:14;;;;;;;2.62;1.45;;;;;;;;;;1678503;85;21176;-85
2021/01/24 12:28:41;;;;;;;3.58;1.90;;;;;;;;;;1678609;84;21157;-85
2021/01/24 12:31:08;;;;;;;2.92;1.00;;;;;;;;;;1678530;84;21181;-85
2021/01/24 12:33:34;;;;;;;2.37;1.05;;;;;;;;;;1678445;85;21161;-85
2021/01/24 12:36:00;;;;;;;3.35;1.32;;;;;;;;;;1678641;85;21698;-84
2021/01/24 12:38:27;;;;;;;3.47;1.20;;;;;;;;;;1678656;85;21168;-86
2021/01/24 12:40:53;;;;;;;2.67;1.30;;;;;;;;;;1678353;85;21168;-85
2021/01/24 12:43:19;;;;;;;3.85;1.42;;;;;;;;;;1678414;85;21666;-86
2021/01/24 12:45:45;;;;;;;1.77;1.15;;;;;;;;;;1678335;85;21193;-85
2021/01/24 12:48:11;;;;;;;0.90;0.60;;;;;;;;;;1678341;85;21185;-85
2021/01/24 12:50:37;;;;;;;2.00;0.90;;;;;;;;;;1678476;84;21169;-85
2021/01/24 12:53:04;;;;;;;1.72;0.47;;;;;;;;;;1678275;85;21196;-85
2021/01/24 12:55:30;;;;;;;1.45;0.80;;;;;;;;;;1678548;85;21613;-85
2021/01/24 12:57:57;;;;;;;2.95;1.10;;;;;;;;;;1678421;85;21208;-86
2021/01/24 13:00:23;;;;;;;1.12;0.78;;;;;;;;;;1699331;84;21174;-85
2021/01/24 13:02:50;;;;;;;1.80;0.98;;;;;;;;;;1700915;84;21346;-85
2021/01/24 13:05:16;;;;;;;1.35;0.82;;;;;;;;;;1700902;84;21363;-85
2021/01/24 13:07:42;;;;;;;2.85;0.98;;;;;;;;;;1700910;84;21223;-85
2021/01/24 13:10:08;;;;;;;3.72;1.05;;;;;;;;;;1700813;84;21169;-84
2021/01/24 13:12:35;;;;;;;1.25;0.88;;;;;;;;;;1700910;84;21640;-86
2021/01/24 13:15:08;;;;;;;3.47;1.32;;;;;;;;;;1701001;84;21200;-85
2021/01/24 13:17:34;;;;;;;2.55;1.00;;;;;;;;;;1700811;84;21204;-85
2021/01/24 13:20:00;;;;;;;1.72;0.90;;;;;;;;;;1701136;84;21180;-86
2021/01/24 13:22:28;;;;;;;1.67;1.02;;;;;;;;;;1700859;84;21160;-84
2021/01/24 13:24:54;;;;;;;2.55;0.80;;;;;;;;;;1700515;84;21295;-85
2021/01/24 13:27:23;;;;;;;2.40;1.10;;;;;;;;;;1700766;84;21145;-86
2021/01/24 13:29:49;;;;;;;2.72;1.20;;;;;;;;;;1700879;84;21334;-85
2021/01/24 13:32:18;;;;;;;3.17;1.27;;;;;;;;;;1700825;84;21331;-84
2021/01/24 13:34:44;;;;;;;3.25;0.95;;;;;;;;;;1701088;83;21584;-86
2021/01/24 13:37:11;;;;;;;1.60;0.90;;;;;;;;;;1701264;84;21598;-84
2021/01/24 13:39:37;;;;;;;1.45;0.98;;;;;;;;;;1701330;84;21180;-85
2021/01/24 13:42:03;;;;;;;1.67;1.10;;;;;;;;;;1701234;84;21193;-85
2021/01/24 13:44:29;;;;;;;2.22;1.02;;;;;;;;;;1701049;84;21759;-85
2021/01/24 13:46:59;;;;;;;2.62;1.20;;;;;;;;;;1701066;84;21307;-86
2021/01/24 13:49:29;;;;;;;2.22;1.27;;;;;;;;;;1700828;84;21362;-84
2021/01/24 13:52:04;;;;;;;2.22;0.90;;;;;;;;;;1700821;84;21179;-85
2021/01/24 13:54:30;;;;;;;3.55;1.25;;;;;;;;;;1700976;84;21620;-84
2021/01/24 13:56:56;;;;;;;2.22;0.90;;;;;;;;;;1701127;84;21180;-85
2021/01/24 13:59:26;;;;;;;2.95;1.40;;;;;;;;;;1701098;84;21211;-86
2021/01/24 14:01:52;;;;;;;2.47;1.12;;;;;;;;;;1700662;84;21654;-86
2021/01/24 14:04:18;;;;;;;3.10;1.22;;;;;;;;;;1700861;84;21175;-85
2021/01/24 14:06:44;;;;;;;2.98;0.93;;;;;;;;;;1700959;84;21331;-86
2021/01/24 14:09:10;;;;;;;2.83;1.10;;;;;;;;;;1700896;84;21201;-85
2021/01/24 14:11:38;;;;;;;2.17;1.10;;;;;;;;;;1700962;84;21224;-84
2021/01/24 14:14:04;;;;;;;0.98;0.60;;;;;;;;;;1701034;84;21220;-86
2021/01/24 14:16:31;;;;;;;2.90;1.02;;;;;;;;;;1701361;84;21204;-85
2021/01/24 14:18:57;;;;;;;2.37;1.22;;;;;;;;;;1701707;84;21640;-84
2021/01/24 14:21:23;;;;;;;2.87;1.25;;;;;;;;;;1702651;84;21364;-85
2021/01/24 14:23:49;;;;;;;1.45;0.72;;;;;;;;;;1702427;84;21348;-84